createdAt,value
2018-06-14T00:01:48.234Z,101196.73
2018-06-14T00:04:14.203Z,101194.19
2018-06-14T00:06:40.168Z,101197.28
2018-06-14T00:09:06.126Z,101194.23
2018-06-14T00:11:32.093Z,101195.87
2018-06-14T00:13:58.071Z,101185.23
2018-06-14T00:16:24.022Z,101184.59
2018-06-14T00:18:50.000Z,101179.89
2018-06-14T00:21:15.984Z,101179.03
2018-06-14T00:23:41.946Z,101181.22
2018-06-14T00:26:07.913Z,101185.84
2018-06-14T00:28:33.866Z,101180.53
2018-06-14T00:30:59.817Z,101181.53
2018-06-14T00:33:25.774Z,101180.03
2018-06-14T00:35:51.743Z,101180.20
2018-06-14T00:38:17.712Z,101177.52
2018-06-14T00:40:44.224Z,101180.89
2018-06-14T00:43:10.190Z,101176.88
2018-06-14T00:45:36.190Z,101177.02
2018-06-14T00:48:02.155Z,101180.56
2018-06-14T00:50:28.151Z,101176.37
2018-06-14T00:52:54.205Z,101173.76
2018-06-14T00:55:20.181Z,101175.13
2018-06-14T00:57:46.131Z,101179.24
2018-06-14T01:00:12.139Z,101175.59
2018-06-14T01:02:38.108Z,101178.28
2018-06-14T01:05:04.069Z,101174.27
2018-06-14T01:07:30.035Z,101176.55
2018-06-14T01:09:56.000Z,101179.20
2018-06-14T01:12:21.977Z,101177.09
2018-06-14T01:14:47.952Z,101182.22
2018-06-14T01:17:13.928Z,101174.27
2018-06-14T01:19:39.886Z,101178.42
2018-06-14T01:22:05.868Z,101169.78
2018-06-14T01:24:31.864Z,101176.27
2018-06-14T01:26:57.827Z,101176.63
2018-06-14T01:29:23.799Z,101170.92
2018-06-14T01:31:49.762Z,101170.75
2018-06-14T01:34:15.710Z,101168.24
2018-06-14T01:36:41.688Z,101175.70
2018-06-14T01:39:07.683Z,101169.56
2018-06-14T01:41:33.676Z,101168.67
2018-06-14T01:43:59.656Z,101165.52
2018-06-14T01:46:25.636Z,101169.78
2018-06-14T01:48:51.627Z,101166.95
2018-06-14T01:51:17.608Z,101173.55
2018-06-14T01:53:43.585Z,101173.22
2018-06-14T01:56:09.539Z,101169.75
2018-06-14T01:58:35.515Z,101166.27
2018-06-14T02:01:01.468Z,101172.25
2018-06-14T02:03:27.425Z,101169.88
2018-06-14T02:05:53.510Z,101171.89
2018-06-14T02:08:19.493Z,101170.78
2018-06-14T02:10:45.447Z,101170.50
2018-06-14T02:13:11.471Z,101166.83
2018-06-14T02:15:37.460Z,101166.06
2018-06-14T02:18:03.410Z,101165.33
2018-06-14T02:20:29.367Z,101165.17
2018-06-14T02:22:55.344Z,101165.70
2018-06-14T02:25:21.325Z,101162.89
2018-06-14T02:27:47.290Z,101166.63
2018-06-14T02:30:13.252Z,101161.19
2018-06-14T02:32:39.205Z,101164.94
2018-06-14T02:35:05.189Z,101163.44
2018-06-14T02:37:31.154Z,101167.09
2018-06-14T02:39:57.121Z,101163.11
2018-06-14T02:42:23.721Z,101163.11
2018-06-14T02:44:49.683Z,101159.31
2018-06-14T02:47:15.639Z,101157.12
2018-06-14T02:49:41.617Z,101162.25
2018-06-14T02:52:07.632Z,101152.79
2018-06-14T02:54:33.601Z,101156.95
2018-06-14T02:56:59.563Z,101156.86
2018-06-14T02:59:25.552Z,101155.13
2018-06-14T03:01:51.514Z,101159.89
2018-06-14T03:04:17.492Z,101154.97
2018-06-14T03:06:43.443Z,101157.66
2018-06-14T03:09:09.427Z,101150.64
2018-06-14T03:11:35.373Z,101150.92
2018-06-14T03:14:01.356Z,101148.89
2018-06-14T03:16:27.311Z,101151.50
2018-06-14T03:18:53.285Z,101146.52
2018-06-14T03:21:19.236Z,101148.34
2018-06-14T03:23:45.276Z,101142.44
2018-06-14T03:26:11.250Z,101146.02
2018-06-14T03:28:37.210Z,101144.19
2018-06-14T03:31:03.260Z,101136.59
2018-06-14T03:33:29.315Z,101141.03
2018-06-14T03:35:55.295Z,101137.09
2018-06-14T03:38:21.270Z,101133.89
2018-06-14T03:40:47.292Z,101132.06
2018-06-14T03:43:13.263Z,101134.30
2018-06-14T03:45:39.251Z,101132.98
2018-06-14T03:48:05.266Z,101131.09
2018-06-14T03:50:31.232Z,101139.13
2018-06-14T03:52:57.190Z,101130.82
2018-06-14T03:55:23.204Z,101127.84
2018-06-14T03:57:49.182Z,101131.11
2018-06-14T04:00:15.155Z,101131.29
2018-06-14T04:02:41.129Z,101131.28
2018-06-14T04:05:07.086Z,101130.93
2018-06-14T04:07:33.755Z,101133.72
2018-06-14T04:09:59.749Z,101134.41
2018-06-14T04:12:25.727Z,101133.26
2018-06-14T04:14:51.676Z,101129.10
2018-06-14T04:17:17.641Z,101136.55
2018-06-14T04:19:43.603Z,101130.79
2018-06-14T04:22:09.569Z,101138.23
2018-06-14T04:24:35.527Z,101137.63
2018-06-14T04:27:01.480Z,101127.80
2018-06-14T04:29:27.439Z,101127.58
2018-06-14T04:31:53.409Z,101130.62
2018-06-14T04:34:19.378Z,101131.86
2018-06-14T04:36:45.331Z,101140.28
2018-06-14T04:39:11.276Z,101133.62
2018-06-14T04:41:37.301Z,101137.59
2018-06-14T04:44:03.272Z,101131.11
2018-06-14T04:46:29.231Z,101129.28
2018-06-14T04:48:55.200Z,101133.04
2018-06-14T04:51:21.187Z,101126.95
2018-06-14T04:53:47.155Z,101129.39
2018-06-14T04:56:13.128Z,101126.80
2018-06-14T04:58:39.091Z,101127.95
2018-06-14T05:01:05.083Z,101128.09
2018-06-14T05:03:31.056Z,101130.61
2018-06-14T05:05:57.011Z,101129.14
2018-06-14T05:08:22.979Z,101129.70
2018-06-14T05:10:48.926Z,101122.08
2018-06-14T05:13:14.968Z,101119.95
2018-06-14T05:15:40.967Z,101123.75
2018-06-14T05:18:07.011Z,101122.69
2018-06-14T05:20:32.924Z,101118.73
2018-06-14T05:22:58.893Z,101125.84
2018-06-14T05:25:24.865Z,101130.61
2018-06-14T05:27:50.815Z,101131.58
2018-06-14T05:30:16.786Z,101128.74
2018-06-14T05:32:42.736Z,101123.94
2018-06-14T05:35:08.722Z,101121.47
2018-06-14T05:37:34.676Z,101118.49
2018-06-14T05:40:00.634Z,101121.79
2018-06-14T05:42:26.651Z,101123.16
2018-06-14T05:44:52.633Z,101119.00
2018-06-14T05:47:18.627Z,101108.06
2018-06-14T05:49:44.587Z,101120.86
2018-06-14T05:52:10.537Z,101114.52
2018-06-14T05:54:36.572Z,101115.73
2018-06-14T05:57:02.554Z,101115.09
2018-06-14T05:59:28.616Z,101118.53
2018-06-14T06:01:54.581Z,101108.56
2018-06-14T06:04:20.529Z,101115.02
2018-06-14T06:06:46.614Z,101116.02
2018-06-14T06:09:12.565Z,101111.08
2018-06-14T06:11:38.543Z,101121.15
2018-06-14T06:14:04.495Z,101116.52
2018-06-14T06:16:30.493Z,101116.88
2018-06-14T06:18:56.575Z,101108.60
2018-06-14T06:21:22.540Z,101122.36
2018-06-14T06:23:48.576Z,101104.59
2018-06-14T06:26:14.606Z,101095.84
2018-06-14T06:28:40.496Z,101096.88
2018-06-14T06:31:06.468Z,101092.87
2018-06-14T06:33:32.469Z,101090.86
2018-06-14T06:35:58.431Z,101095.38
2018-06-14T06:38:24.425Z,101099.73
2018-06-14T06:40:50.409Z,101093.35
2018-06-14T06:43:16.363Z,101094.22
2018-06-14T06:45:42.335Z,101092.59
2018-06-14T06:48:08.282Z,101090.39
2018-06-14T06:50:34.244Z,101092.48
2018-06-14T06:53:00.327Z,101100.85
2018-06-14T06:55:26.218Z,101097.20
2018-06-14T06:57:52.184Z,101100.00
2018-06-14T07:00:18.172Z,101095.02
2018-06-14T07:02:44.121Z,101090.42
2018-06-14T07:05:10.072Z,101097.05
2018-06-14T07:07:36.076Z,101094.40
2018-06-14T07:10:02.049Z,101093.07
2018-06-14T07:12:28.016Z,101099.38
2018-06-14T07:14:53.965Z,101081.14
2018-06-14T07:17:19.926Z,101079.28
2018-06-14T07:19:45.876Z,101082.78
2018-06-14T07:22:11.832Z,101083.79
2018-06-14T07:24:38.705Z,101084.76
2018-06-14T07:27:04.674Z,101082.75
2018-06-14T07:29:30.673Z,101076.80
2018-06-14T07:31:56.636Z,101080.11
2018-06-14T07:34:22.616Z,101083.11
2018-06-14T07:36:48.648Z,101084.41
2018-06-14T07:39:14.609Z,101079.13
2018-06-14T07:41:40.602Z,101075.48
2018-06-14T07:44:06.599Z,101074.98
2018-06-14T07:46:32.556Z,101074.66
2018-06-14T07:48:58.547Z,101074.83
2018-06-14T07:51:24.525Z,101069.32
2018-06-14T07:53:50.502Z,101068.34
2018-06-14T07:56:16.528Z,101066.02
2018-06-14T07:58:42.498Z,101068.11
2018-06-14T08:01:08.513Z,101065.96
2018-06-14T08:03:34.481Z,101067.99
2018-06-14T08:06:00.444Z,101066.20
2018-06-14T08:08:26.419Z,101064.69
2018-06-14T08:10:52.384Z,101057.09
2018-06-14T08:13:18.378Z,101055.56
2018-06-14T08:15:44.351Z,101050.23
2018-06-14T08:18:10.328Z,101049.25
2018-06-14T08:20:36.297Z,101039.97
2018-06-14T08:23:02.257Z,101049.92
2018-06-14T08:25:28.234Z,101054.05
2018-06-14T08:27:54.211Z,101049.92
2018-06-14T08:30:20.376Z,101057.38
2018-06-14T08:32:46.408Z,101052.08
2018-06-14T08:35:12.368Z,101058.89
2018-06-14T08:37:38.312Z,101049.78
2018-06-14T08:40:04.278Z,101044.64
2018-06-14T08:42:30.233Z,101040.83
2018-06-14T08:44:56.214Z,101045.92
2018-06-14T08:47:22.174Z,101046.95
2018-06-14T08:49:48.135Z,101044.17
2018-06-14T08:52:14.108Z,101041.34
2018-06-14T08:54:40.083Z,101041.80
2018-06-14T08:57:06.079Z,101049.72
2018-06-14T08:59:32.075Z,101039.97
2018-06-14T09:01:58.058Z,101029.69
2018-06-14T09:04:23.999Z,101026.91
2018-06-14T09:06:49.959Z,101024.38
2018-06-14T09:09:15.927Z,101018.28
2018-06-14T09:11:41.888Z,101016.10
2018-06-14T09:14:07.868Z,101010.14
2018-06-14T09:16:33.837Z,101019.73
2018-06-14T09:18:59.798Z,101024.41
2018-06-14T09:21:25.760Z,101030.54
2018-06-14T09:23:51.734Z,101020.58
2018-06-14T09:26:17.682Z,101016.16
2018-06-14T09:28:43.686Z,101017.11
2018-06-14T09:31:09.660Z,101016.28
2018-06-14T09:33:35.640Z,101013.63
2018-06-14T09:36:01.617Z,101012.47
2018-06-14T09:38:27.579Z,101019.28
2018-06-14T09:40:53.545Z,101013.33
2018-06-14T09:43:19.509Z,101015.10
2018-06-14T09:45:45.473Z,101020.41
2018-06-14T09:48:11.440Z,101013.95
2018-06-14T09:50:37.470Z,101018.08
2018-06-14T09:53:03.475Z,101015.80
2018-06-14T09:55:29.421Z,101008.99
2018-06-14T09:57:55.395Z,101011.50
2018-06-14T10:00:21.577Z,101022.63
2018-06-14T10:02:47.478Z,101014.86
2018-06-14T10:05:13.457Z,101011.05
2018-06-14T10:07:39.416Z,101013.03
2018-06-14T10:10:05.398Z,101013.63
2018-06-14T10:12:31.362Z,101014.28
2018-06-14T10:14:57.915Z,101014.36
2018-06-14T10:17:23.889Z,101009.57
2018-06-14T10:19:49.872Z,101018.19
2018-06-14T10:22:15.851Z,101013.22
2018-06-14T10:24:41.898Z,101013.36
2018-06-14T10:27:07.883Z,101010.52
2018-06-14T10:29:33.840Z,101014.67
2018-06-14T10:31:59.813Z,101015.17
2018-06-14T10:34:25.796Z,101010.32
2018-06-14T10:36:51.774Z,101011.83
2018-06-14T10:39:17.723Z,101017.63
2018-06-14T10:41:43.674Z,101008.67
2018-06-14T10:44:09.641Z,101013.45
2018-06-14T10:46:35.618Z,101007.49
2018-06-14T10:49:01.603Z,101015.42
2018-06-14T10:51:27.580Z,101004.17
2018-06-14T10:53:53.579Z,101012.34
2018-06-14T10:56:19.583Z,101002.23
2018-06-14T10:58:45.549Z,101002.44
2018-06-14T11:01:11.549Z,101001.90
2018-06-14T11:03:37.540Z,100986.97
2018-06-14T11:06:03.599Z,100991.95
2018-06-14T11:08:29.520Z,100986.25
2018-06-14T11:10:55.527Z,100988.25
2018-06-14T11:13:21.499Z,100988.25
2018-06-14T11:15:47.452Z,100988.61
2018-06-14T11:18:13.436Z,100992.23
2018-06-14T11:20:39.459Z,100982.66
2018-06-14T11:23:05.446Z,100983.98
2018-06-14T11:25:31.431Z,100980.13
2018-06-14T11:27:57.405Z,100974.69
2018-06-14T11:30:23.381Z,100963.10
2018-06-14T11:32:49.380Z,100956.11
2018-06-14T11:35:15.368Z,100971.52
2018-06-14T11:37:41.320Z,100959.08
2018-06-14T11:40:07.279Z,100959.74
2018-06-14T11:42:33.270Z,100955.78
2018-06-14T11:44:59.212Z,100959.94
2018-06-14T11:47:25.185Z,100956.91
2018-06-14T11:49:51.153Z,100949.95
2018-06-14T11:52:17.133Z,100954.45
2018-06-14T11:54:43.103Z,100944.34
2018-06-14T11:57:09.089Z,100943.84
2018-06-14T11:59:35.060Z,100946.84
2018-06-14T12:02:01.021Z,100958.09
2018-06-14T12:04:26.979Z,100943.82
2018-06-14T12:06:52.949Z,100937.23
2018-06-14T12:09:18.913Z,100941.20
2018-06-14T12:11:44.888Z,100933.89
2018-06-14T12:14:10.886Z,100931.58
2018-06-14T12:16:36.926Z,100932.59
2018-06-14T12:19:02.913Z,100930.64
2018-06-14T12:21:28.895Z,100919.98
2018-06-14T12:23:54.881Z,100918.16
2018-06-14T12:26:20.861Z,100914.19
2018-06-14T12:28:46.900Z,100925.28
2018-06-14T12:31:12.865Z,100922.46
2018-06-14T12:33:38.827Z,100910.20
2018-06-14T12:36:04.776Z,100912.20
2018-06-14T12:38:30.728Z,100910.05
2018-06-14T12:40:56.689Z,100905.23
2018-06-14T12:43:22.640Z,100904.08
2018-06-14T12:45:48.607Z,100902.75
2018-06-14T12:48:14.556Z,100903.72
2018-06-14T12:50:40.538Z,100896.29
2018-06-14T12:53:06.519Z,100893.45
2018-06-14T12:55:32.514Z,100888.48
2018-06-14T12:57:58.542Z,100887.83
2018-06-14T13:00:24.517Z,100891.48
2018-06-14T13:02:50.505Z,100893.80
2018-06-14T13:05:16.489Z,100889.83
2018-06-14T13:07:42.452Z,100887.66
2018-06-14T13:10:08.422Z,100888.50
2018-06-14T13:12:34.389Z,100878.87
2018-06-14T13:15:00.352Z,100881.52
2018-06-14T13:17:26.347Z,100881.03
2018-06-14T13:19:52.329Z,100882.19
2018-06-14T13:22:18.284Z,100888.48
2018-06-14T13:24:44.273Z,100882.51
2018-06-14T13:27:10.232Z,100874.38
2018-06-14T13:29:36.196Z,100878.55
2018-06-14T13:32:02.160Z,100876.38
2018-06-14T13:34:28.134Z,100875.89
2018-06-14T13:36:54.088Z,100872.25
2018-06-14T13:39:20.042Z,100866.93
2018-06-14T13:41:46.037Z,100871.09
2018-06-14T13:44:11.995Z,100877.07
2018-06-14T13:46:37.949Z,100873.59
2018-06-14T13:49:04.082Z,100868.94
2018-06-14T13:51:29.879Z,100872.42
2018-06-14T13:53:55.842Z,100869.77
2018-06-14T13:56:21.791Z,100868.10
2018-06-14T13:58:47.754Z,100869.78
2018-06-14T14:01:14.676Z,100867.62
2018-06-14T14:03:40.645Z,100870.58
2018-06-14T14:06:06.612Z,100875.88
2018-06-14T14:08:32.589Z,100873.41
2018-06-14T14:10:58.577Z,100870.92
2018-06-14T14:13:24.544Z,100877.07
2018-06-14T14:15:50.569Z,100874.91
2018-06-14T14:18:16.546Z,100884.17
2018-06-14T14:20:42.538Z,100867.28
2018-06-14T14:23:08.512Z,100872.08
2018-06-14T14:25:34.485Z,100871.11
2018-06-14T14:28:00.436Z,100873.41
2018-06-14T14:30:26.442Z,100870.10
2018-06-14T14:32:52.422Z,100870.92
2018-06-14T14:35:18.416Z,100877.91
2018-06-14T14:37:44.421Z,100879.89
2018-06-14T14:40:10.420Z,100882.20
2018-06-14T14:42:36.462Z,100881.73
2018-06-14T14:45:02.394Z,100879.22
2018-06-14T14:47:28.378Z,100881.72
2018-06-14T14:49:54.334Z,100891.00
2018-06-14T14:52:20.320Z,100885.55
2018-06-14T14:54:46.330Z,100883.05
2018-06-14T14:57:12.264Z,100884.87
2018-06-14T14:59:38.227Z,100877.59
2018-06-14T15:02:04.201Z,100879.89
2018-06-14T15:04:30.165Z,100880.54
2018-06-14T15:06:56.133Z,100889.67
2018-06-14T15:09:22.111Z,100890.51
2018-06-14T15:11:48.066Z,100897.47
2018-06-14T15:14:14.051Z,100900.30
2018-06-14T15:16:40.024Z,100901.11
2018-06-14T15:19:05.989Z,100899.62
2018-06-14T15:21:31.949Z,100906.58
2018-06-14T15:23:57.914Z,100906.24
2018-06-14T15:26:23.872Z,100905.27
2018-06-14T15:28:49.849Z,100905.44
2018-06-14T15:31:15.816Z,100907.57
2018-06-14T15:33:41.818Z,100911.08
2018-06-14T15:36:07.811Z,100917.88
2018-06-14T15:38:33.806Z,100924.00
2018-06-14T15:40:59.762Z,100925.16
2018-06-14T15:43:25.762Z,100924.66
2018-06-14T15:45:51.708Z,100933.09
2018-06-14T15:48:17.667Z,100929.13
2018-06-14T15:50:43.637Z,100937.74
2018-06-14T15:53:09.692Z,100938.06
2018-06-14T15:55:35.661Z,100942.22
2018-06-14T15:58:01.658Z,100945.72
2018-06-14T16:00:27.668Z,100948.67
2018-06-14T16:02:53.665Z,100947.52
2018-06-14T16:05:19.653Z,100952.66
2018-06-14T16:07:45.636Z,100952.17
2018-06-14T16:10:11.624Z,100948.38
2018-06-14T16:12:37.619Z,100948.36
2018-06-14T16:15:03.603Z,100949.70
2018-06-14T16:17:29.583Z,100950.88
2018-06-14T16:19:55.545Z,100961.52
2018-06-14T16:22:21.518Z,100962.48
2018-06-14T16:24:47.502Z,100961.47
2018-06-14T16:27:13.458Z,100963.44
2018-06-14T16:29:39.423Z,100968.27
2018-06-14T16:32:05.387Z,100970.08
2018-06-14T16:34:31.356Z,100966.59
2018-06-14T16:36:57.351Z,100972.37
2018-06-14T16:39:23.338Z,100978.36
2018-06-14T16:41:49.323Z,100970.11
2018-06-14T16:44:15.313Z,100967.45
2018-06-14T16:46:41.342Z,100971.07
2018-06-14T16:49:07.299Z,100972.37
2018-06-14T16:51:33.260Z,100977.38
2018-06-14T16:53:59.254Z,100983.52
2018-06-14T16:56:25.217Z,100984.66
2018-06-14T16:58:51.177Z,100987.81
2018-06-14T17:01:17.196Z,100992.61
2018-06-14T17:03:43.128Z,100994.78
2018-06-14T17:06:09.082Z,100998.47
2018-06-14T17:08:35.095Z,100998.86
2018-06-14T17:11:01.083Z,100989.66
2018-06-14T17:13:27.079Z,100992.80
2018-06-14T17:15:53.066Z,100988.83
2018-06-14T17:18:19.084Z,100994.83
2018-06-14T17:20:45.153Z,100994.97
2018-06-14T17:23:11.164Z,100996.30
2018-06-14T17:25:37.157Z,101003.94
2018-06-14T17:28:03.120Z,101001.77
2018-06-14T17:30:29.152Z,100998.28
2018-06-14T17:32:55.188Z,101001.46
2018-06-14T17:35:21.193Z,100996.16
2018-06-14T17:37:47.166Z,100994.49
2018-06-14T17:40:13.123Z,100989.39
2018-06-14T17:42:39.164Z,100995.16
2018-06-14T17:45:05.158Z,100994.52
2018-06-14T17:47:31.149Z,100991.69
2018-06-14T17:49:57.171Z,100990.01
2018-06-14T17:52:23.134Z,100989.34
2018-06-14T17:54:51.197Z,100989.03
2018-06-14T17:57:17.258Z,100989.52
2018-06-14T17:59:43.230Z,100993.48
2018-06-14T18:02:09.253Z,100993.83
2018-06-14T18:04:35.246Z,100991.02
2018-06-14T18:07:01.230Z,100993.48
2018-06-14T18:09:27.221Z,100999.97
2018-06-14T18:11:53.190Z,100996.16
2018-06-14T18:14:19.174Z,100998.80
2018-06-14T18:16:45.166Z,101003.78
2018-06-14T18:19:11.167Z,101006.92
2018-06-14T18:21:37.191Z,100998.80
2018-06-14T18:24:03.240Z,101004.28
2018-06-14T18:26:29.219Z,101008.94
2018-06-14T18:28:55.202Z,101010.27
2018-06-14T18:31:21.176Z,101007.41
2018-06-14T18:33:47.164Z,101013.74
2018-06-14T18:36:13.467Z,101013.91
2018-06-14T18:38:39.445Z,101009.94
2018-06-14T18:41:06.202Z,101011.77
2018-06-14T18:43:32.175Z,101011.31
2018-06-14T18:45:58.166Z,101011.09
2018-06-14T18:48:24.148Z,101008.42
2018-06-14T18:50:50.160Z,101005.95
2018-06-14T18:53:16.206Z,101010.64
2018-06-14T18:55:42.161Z,101017.39
2018-06-14T18:58:08.145Z,101015.88
2018-06-14T19:00:34.113Z,101018.86
2018-06-14T19:03:00.093Z,101023.16
2018-06-14T19:05:26.087Z,101018.20
2018-06-14T19:07:52.060Z,101024.16
2018-06-14T19:10:18.047Z,101025.65
2018-06-14T19:12:44.058Z,101022.49
2018-06-14T19:15:10.091Z,101026.80
2018-06-14T19:17:36.198Z,101030.30
2018-06-14T19:20:02.070Z,101033.77
2018-06-14T19:22:28.077Z,101031.64
2018-06-14T19:24:54.083Z,101038.76
2018-06-14T19:27:20.040Z,101038.76
2018-06-14T19:29:46.031Z,101038.58
2018-06-14T19:32:12.071Z,101039.06
2018-06-14T19:34:38.072Z,101039.59
2018-06-14T19:37:04.077Z,101036.94
2018-06-14T19:39:30.056Z,101037.13
2018-06-14T19:41:56.085Z,101033.84
2018-06-14T19:44:22.061Z,101043.84
2018-06-14T19:46:48.096Z,101042.86
2018-06-14T19:49:14.101Z,101051.20
2018-06-14T19:51:40.161Z,101054.01
2018-06-14T19:54:06.158Z,101058.16
2018-06-14T19:56:32.140Z,101057.16
2018-06-14T19:58:58.111Z,101059.64
2018-06-14T20:01:24.096Z,101061.29
2018-06-14T20:03:50.073Z,101067.44
2018-06-14T20:06:16.071Z,101079.05
2018-06-14T20:08:42.053Z,101078.73
2018-06-14T20:11:08.077Z,101078.08
2018-06-14T20:13:34.048Z,101082.70
2018-06-14T20:16:00.070Z,101079.39
2018-06-14T20:18:26.036Z,101081.37
2018-06-14T20:20:52.116Z,101083.23
2018-06-14T20:23:18.121Z,101089.64
2018-06-14T20:25:44.092Z,101083.70
2018-06-14T20:28:10.074Z,101085.73
2018-06-14T20:30:36.061Z,101089.53
2018-06-14T20:33:02.101Z,101086.38
2018-06-14T20:35:28.128Z,101088.71
2018-06-14T20:37:54.106Z,101091.00
2018-06-14T20:40:20.089Z,101086.52
2018-06-14T20:42:46.079Z,101090.01
2018-06-14T20:45:12.059Z,101091.66
2018-06-14T20:47:38.061Z,101097.25
2018-06-14T20:50:04.049Z,101090.89
2018-06-14T20:52:30.106Z,101092.20
2018-06-14T20:54:56.093Z,101092.14
2018-06-14T20:57:22.084Z,101098.28
2018-06-14T20:59:48.089Z,101100.26
2018-06-14T21:02:14.053Z,101100.73
2018-06-14T21:04:40.056Z,101101.73
2018-06-14T21:07:06.029Z,101100.05
2018-06-14T21:09:32.030Z,101105.03
2018-06-14T21:11:58.081Z,101103.44
2018-06-14T21:14:24.128Z,101111.30
2018-06-14T21:16:50.090Z,101111.90
2018-06-14T21:19:16.111Z,101114.23
2018-06-14T21:21:42.098Z,101109.89
2018-06-14T21:24:08.097Z,101107.04
2018-06-14T21:26:34.114Z,101108.16
2018-06-14T21:29:00.111Z,101106.02
2018-06-14T21:31:26.105Z,101108.02
2018-06-14T21:33:52.130Z,101106.98
2018-06-14T21:36:18.109Z,101110.99
2018-06-14T21:38:44.138Z,101114.97
2018-06-14T21:41:10.126Z,101108.81
2018-06-14T21:43:36.114Z,101110.81
2018-06-14T21:46:02.112Z,101107.98
2018-06-14T21:48:28.141Z,101105.33
2018-06-14T21:50:54.161Z,101107.66
2018-06-14T21:53:20.211Z,101109.88
2018-06-14T21:55:46.228Z,101107.54
2018-06-14T21:58:12.255Z,101104.59
2018-06-14T22:00:38.251Z,101111.92
2018-06-14T22:03:04.270Z,101111.41
2018-06-14T22:05:30.278Z,101112.00
2018-06-14T22:07:56.250Z,101112.47
2018-06-14T22:10:22.286Z,101113.73
2018-06-14T22:12:48.298Z,101114.05
2018-06-14T22:15:14.292Z,101111.67
2018-06-14T22:17:40.658Z,101116.47
2018-06-14T22:20:06.653Z,101114.65
2018-06-14T22:22:32.657Z,101118.45
2018-06-14T22:24:58.651Z,101108.48
2018-06-14T22:27:24.672Z,101118.59
2018-06-14T22:29:50.668Z,101110.34
2018-06-14T22:32:16.641Z,101112.50
2018-06-14T22:34:42.656Z,101114.12
2018-06-14T22:37:08.637Z,101111.78
2018-06-14T22:39:34.639Z,101112.64
2018-06-14T22:42:00.686Z,101115.33
2018-06-14T22:44:26.791Z,101117.63
2018-06-14T22:46:52.728Z,101112.67
2018-06-14T22:49:18.713Z,101117.59
2018-06-14T22:51:44.775Z,101123.08
2018-06-14T22:54:10.766Z,101123.90
2018-06-14T22:56:36.744Z,101114.14
2018-06-14T22:59:02.712Z,101118.98
2018-06-14T23:01:28.681Z,101115.97
2018-06-14T23:03:54.690Z,101115.27
2018-06-14T23:06:20.725Z,101108.31
2018-06-14T23:08:46.689Z,101106.66
2018-06-14T23:11:12.696Z,101112.00
2018-06-14T23:13:38.670Z,101111.31
2018-06-14T23:16:04.649Z,101108.37
2018-06-14T23:18:30.640Z,101099.70
2018-06-14T23:20:56.618Z,101098.73
2018-06-14T23:23:22.621Z,101097.91
2018-06-14T23:25:48.700Z,101099.27
2018-06-14T23:28:14.670Z,101101.56
2018-06-14T23:30:40.668Z,101099.03
2018-06-14T23:33:06.648Z,101095.88
2018-06-14T23:35:32.623Z,101100.67
2018-06-14T23:37:58.623Z,101104.00
2018-06-14T23:40:24.615Z,101100.35
2018-06-14T23:42:50.614Z,101105.30
2018-06-14T23:45:16.598Z,101105.36
2018-06-14T23:47:42.697Z,101105.98
2018-06-14T23:50:08.714Z,101104.33
2018-06-14T23:52:34.716Z,101107.69
2018-06-14T23:55:00.679Z,101103.41
2018-06-14T23:57:26.733Z,101105.36
2018-06-14T23:59:53.712Z,101105.33
